Time;durP1;ratioP1;P1;durP2;ratioP2;P2;SDS_P1;SDS_P2;PMS_P1;PMS_P2;Temp;Humidity;BMP_temperature;BMP_pressure;BME280_temperature;BME280_humidity;BME280_pressure;Samples;Min_cycle;Max_cycle;Signal;HPM_P1;HPM_P2
2023/04/24 00:02:03;;;;;;;8.43;7.35;;;;;;;10.37;84.67;63067.41;5024592;28;20219;-78
2023/04/24 00:04:31;;;;;;;8.40;7.05;;;;;;;10.10;89.46;63039.97;5027838;28;20419;-78
2023/04/24 00:06:59;;;;;;;7.63;6.93;;;;;;;10.11;90.62;63038.47;5028066;28;20249;-77
2023/04/24 00:09:27;;;;;;;8.27;7.07;;;;;;;10.15;87.36;63047.69;5020471;28;20254;-80
2023/04/24 00:11:55;;;;;;;10.82;7.13;;;;;;;10.17;85.28;63046.69;5027372;28;20237;-77
2023/04/24 00:14:23;;;;;;;7.15;6.50;;;;;;;10.19;84.67;63046.75;5026231;28;20199;-80
2023/04/24 00:16:51;;;;;;;7.03;6.40;;;;;;;10.11;84.57;63043.53;5027352;28;20219;-78
2023/04/24 00:19:21;;;;;;;9.55;6.95;;;;;;;10.05;85.46;63034.25;5025514;28;20227;-77
2023/04/24 00:21:49;;;;;;;6.85;6.30;;;;;;;9.99;86.28;63028.56;5011402;28;20218;-77
2023/04/24 00:24:16;;;;;;;9.90;6.53;;;;;;;10.02;84.92;63036.78;5026467;28;20305;-78
2023/04/24 00:26:44;;;;;;;7.18;6.47;;;;;;;10.09;84.32;63043.50;5029406;28;20205;-78
2023/04/24 00:29:11;;;;;;;8.13;6.68;;;;;;;10.12;83.51;63041.53;5022483;28;20210;-78
2023/04/24 00:31:39;;;;;;;6.50;5.95;;;;;;;10.17;83.50;63047.22;5028836;28;20233;-81
2023/04/24 00:34:08;;;;;;;7.13;6.53;;;;;;;10.17;83.50;63046.69;5025962;28;20210;-77
2023/04/24 00:36:35;;;;;;;7.93;6.47;;;;;;;9.98;86.89;63027.00;5024440;28;20555;-77
2023/04/24 00:39:02;;;;;;;9.10;6.50;;;;;;;10.02;86.46;63029.13;5026550;28;20203;-77
2023/04/24 00:41:30;;;;;;;9.90;6.72;;;;;;;10.08;86.08;63037.91;5012254;28;20203;-79
2023/04/24 00:43:57;;;;;;;7.07;6.43;;;;;;;10.04;86.05;63033.75;5026142;28;20563;-77
2023/04/24 00:46:24;;;;;;;10.00;7.72;;;;;;;9.91;87.41;63022.84;5028030;28;20277;-77
2023/04/24 00:48:52;;;;;;;8.63;7.78;;;;;;;9.68;90.76;62999.03;5008280;28;20465;-77
2023/04/24 00:51:20;;;;;;;8.98;7.85;;;;;;;9.56;91.62;62983.59;5010048;28;20198;-78
2023/04/24 00:53:47;;;;;;;10.02;8.15;;;;;;;9.77;90.81;63005.28;5012289;28;20246;-78
2023/04/24 00:56:15;;;;;;;13.23;8.90;;;;;;;9.87;90.45;63010.56;5029210;28;20218;-79
2023/04/24 00:58:43;;;;;;;13.05;8.70;;;;;;;9.91;89.74;63019.78;5026510;28;20229;-79
2023/04/24 01:01:11;;;;;;;11.88;8.90;;;;;;;9.99;88.82;63026.03;5024739;28;20626;-79
2023/04/24 01:03:39;;;;;;;8.88;8.00;;;;;;;10.07;88.05;63038.88;5025035;28;20306;-80
2023/04/24 01:06:07;;;;;;;13.70;8.95;;;;;;;10.21;86.45;63048.81;5026638;28;20199;-79
2023/04/24 01:08:37;;;;;;;13.57;8.65;;;;;;;10.19;85.77;63049.28;5026734;28;20283;-79
2023/04/24 01:11:05;;;;;;;10.27;7.95;;;;;;;10.30;85.77;63065.75;5017241;28;20210;-77
2023/04/24 01:13:34;;;;;;;10.25;7.90;;;;;;;10.38;84.82;63068.44;5009742;28;20250;-78
2023/04/24 01:16:01;;;;;;;8.88;7.95;;;;;;;10.38;84.42;63070.97;5007234;28;20199;-79
2023/04/24 01:18:29;;;;;;;8.52;7.63;;;;;;;10.37;83.08;63069.94;5008041;28;20219;-77
2023/04/24 01:20:59;;;;;;;8.35;7.55;;;;;;;10.55;83.33;63088.03;5020714;28;20209;-77
2023/04/24 01:23:28;;;;;;;8.00;7.20;;;;;;;10.34;86.68;63062.25;5025707;28;20326;-78
2023/04/24 01:25:56;;;;;;;10.73;7.13;;;;;;;10.27;87.68;63057.56;5026279;28;20561;-79
2023/04/24 01:28:24;;;;;;;9.20;7.80;;;;;;;10.39;87.61;63066.91;5025691;28;20226;-79
2023/04/24 01:30:51;;;;;;;7.72;6.93;;;;;;;9.85;94.40;63011.03;5016696;28;20203;-79
2023/04/24 01:33:18;;;;;;;10.25;7.82;;;;;;;9.99;96.54;63028.06;5022619;28;20226;-79
2023/04/24 01:35:46;;;;;;;9.07;7.60;;;;;;;10.00;97.91;63026.53;5027389;28;20207;-78
2023/04/24 01:38:13;;;;;;;9.80;7.57;;;;;;;9.96;100.00;63027.50;5026826;28;20218;-78
2023/04/24 01:40:41;;;;;;;8.43;7.60;;;;;;;9.88;100.00;63017.19;5023588;28;20225;-77
2023/04/24 01:43:09;;;;;;;10.82;8.27;;;;;;;9.73;100.00;62998.63;5024834;28;20229;-77
2023/04/24 01:45:36;;;;;;;10.32;8.43;;;;;;;9.64;100.00;62987.28;5025562;28;20254;-78
2023/04/24 01:48:03;;;;;;;14.73;8.38;;;;;;;9.59;100.00;62987.22;5023235;28;22273;-77
2023/04/24 01:50:30;;;;;;;10.65;9.55;;;;;;;9.28;100.00;62955.66;5024688;28;20270;-77
2023/04/24 01:52:57;;;;;;;11.68;9.45;;;;;;;9.10;100.00;62934.00;5025943;28;20215;-78
2023/04/24 01:55:25;;;;;;;11.15;9.80;;;;;;;9.06;100.00;62932.41;5027437;28;20213;-77
2023/04/24 01:57:57;;;;;;;11.98;10.30;;;;;;;9.06;100.00;62932.91;5028948;28;20223;-78
2023/04/24 02:00:25;;;;;;;15.43;10.40;;;;;;;9.08;100.00;62939.53;5023776;28;20369;-79
2023/04/24 02:02:52;;;;;;;12.10;9.68;;;;;;;9.03;100.00;62929.31;5023384;28;20215;-77
2023/04/24 02:05:19;;;;;;;14.23;9.63;;;;;;;9.01;100.00;62922.69;5010883;28;20237;-79
2023/04/24 02:07:46;;;;;;;11.15;9.80;;;;;;;9.02;100.00;62930.81;5028360;28;20226;-77
2023/04/24 02:10:14;;;;;;;11.25;10.05;;;;;;;8.96;100.00;62917.50;5029762;28;20195;-79
2023/04/24 02:12:41;;;;;;;13.02;8.85;;;;;;;8.91;100.00;62916.91;5032517;28;20253;-77
2023/04/24 02:15:10;;;;;;;12.00;9.90;;;;;;;8.87;100.00;62913.28;5025589;28;20207;-79
2023/04/24 02:17:37;;;;;;;9.23;8.27;;;;;;;8.93;100.00;62916.94;5028240;28;20285;-77
2023/04/24 02:20:05;;;;;;;12.50;9.18;;;;;;;8.85;100.00;62908.16;5028267;28;20230;-77
2023/04/24 02:22:32;;;;;;;12.27;9.38;;;;;;;8.92;100.00;62915.41;5027031;28;20245;-78
2023/04/24 02:24:59;;;;;;;12.35;8.95;;;;;;;8.96;100.00;62925.13;5027514;28;20230;-77
2023/04/24 02:27:27;;;;;;;10.50;9.18;;;;;;;8.92;100.00;62918.44;5031896;28;20273;-79
2023/04/24 02:29:54;;;;;;;10.77;9.45;;;;;;;8.93;100.00;62918.97;5026754;28;20372;-80
2023/04/24 02:32:23;;;;;;;11.52;8.60;;;;;;;8.94;100.00;62923.06;5009277;28;20219;-78
2023/04/24 02:34:50;;;;;;;9.02;8.10;;;;;;;8.96;100.00;62919.53;5026279;28;20203;-79
2023/04/24 02:37:17;;;;;;;8.88;8.00;;;;;;;8.93;100.00;62916.94;5028440;28;20226;-78
2023/04/24 02:39:44;;;;;;;8.68;7.78;;;;;;;8.90;100.00;62913.34;5020137;28;20243;-79
2023/04/24 02:42:14;;;;;;;9.90;8.65;;;;;;;8.84;100.00;62912.19;5012700;28;20222;-77
2023/04/24 02:44:41;;;;;;;10.32;9.20;;;;;;;8.88;100.00;62916.34;5029493;28;20464;-78
2023/04/24 02:47:08;;;;;;;9.38;8.40;;;;;;;8.80;100.00;62906.03;5028486;28;20242;-78
2023/04/24 02:49:37;;;;;;;8.23;7.50;;;;;;;8.83;100.00;62909.16;5028460;28;20518;-79
2023/04/24 02:52:04;;;;;;;9.05;8.07;;;;;;;8.80;100.00;62908.59;5026808;28;20234;-78
2023/04/24 02:54:31;;;;;;;9.55;8.65;;;;;;;8.80;100.00;62908.09;5015088;28;20214;-78
2023/04/24 02:56:58;;;;;;;8.85;7.95;;;;;;;8.73;100.00;62898.81;5027285;28;20230;-80
2023/04/24 02:59:26;;;;;;;9.77;8.20;;;;;;;8.79;100.00;62909.56;5028683;28;20523;-81
2023/04/24 03:01:53;;;;;;;9.23;8.00;;;;;;;8.75;100.00;62900.88;5026574;28;20227;-78
2023/04/24 03:04:22;;;;;;;8.25;7.55;;;;;;;8.62;100.00;62886.94;5027933;28;20290;-79
2023/04/24 03:06:52;;;;;;;8.40;7.18;;;;;;;8.63;100.00;62890.53;5030415;28;20535;-77
2023/04/24 03:09:19;;;;;;;9.98;7.90;;;;;;;8.61;100.00;62886.41;5028049;28;20217;-78
2023/04/24 03:11:48;;;;;;;8.95;8.07;;;;;;;8.62;100.00;62886.94;5029293;28;20222;-76
2023/04/24 03:14:15;;;;;;;8.35;7.47;;;;;;;8.57;100.00;62884.84;5020064;28;20203;-76
2023/04/24 03:16:42;;;;;;;9.05;8.25;;;;;;;8.57;100.00;62884.84;5023994;28;20401;-79
2023/04/24 03:19:09;;;;;;;9.73;8.82;;;;;;;8.57;100.00;62879.75;5026645;28;20202;-77
2023/04/24 03:21:40;;;;;;;12.20;9.07;;;;;;;8.56;100.00;62883.28;5028858;28;20199;-77
2023/04/24 03:24:09;;;;;;;10.10;8.43;;;;;;;8.62;100.00;62884.41;5026688;28;20203;-77
2023/04/24 03:26:36;;;;;;;10.95;9.60;;;;;;;8.63;100.00;62885.44;5027413;28;20234;-77
2023/04/24 03:29:03;;;;;;;12.45;9.52;;;;;;;8.66;100.00;62893.63;5025359;28;20207;-78
2023/04/24 03:31:30;;;;;;;9.43;8.50;;;;;;;8.69;100.00;62897.22;5023187;28;20198;-77
2023/04/24 03:33:57;;;;;;;10.82;9.57;;;;;;;8.81;100.00;62909.09;5022147;28;20210;-76
2023/04/24 03:36:25;;;;;;;8.27;7.57;;;;;;;8.79;100.00;62905.03;5012100;28;20215;-78
2023/04/24 03:38:52;;;;;;;9.63;8.73;;;;;;;8.83;100.00;62908.63;5026949;28;20258;-77
2023/04/24 03:41:22;;;;;;;11.68;8.75;;;;;;;8.90;100.00;62915.88;5029541;28;20213;-78
2023/04/24 03:43:49;;;;;;;10.63;9.52;;;;;;;8.82;100.00;62907.59;5025747;28;20217;-78
2023/04/24 03:46:16;;;;;;;10.75;8.38;;;;;;;8.89;100.00;62917.88;5024569;28;20242;-79
2023/04/24 03:48:44;;;;;;;10.65;9.45;;;;;;;8.92;100.00;62918.44;5022251;28;20219;-77
2023/04/24 03:51:11;;;;;;;10.50;8.20;;;;;;;8.92;100.00;62915.41;5025306;28;20429;-78
2023/04/24 03:53:38;;;;;;;7.97;7.18;;;;;;;8.98;100.00;62924.13;5023851;28;20226;-78
2023/04/24 03:56:05;;;;;;;7.25;6.60;;;;;;;9.03;100.00;62924.22;5014345;28;20274;-78
2023/04/24 03:58:34;;;;;;;7.60;7.00;;;;;;;9.15;100.00;62941.72;5027902;28;20223;-78
2023/04/24 04:01:01;;;;;;;8.38;7.03;;;;;;;9.32;100.00;62956.75;5019778;28;20372;-78
2023/04/24 04:03:27;;;;;;;10.20;7.50;;;;;;;9.25;100.00;62946.97;5016323;28;20286;-76
2023/04/24 04:05:55;;;;;;;8.05;7.25;;;;;;;9.44;100.00;62971.19;5016937;28;20234;-77
2023/04/24 04:08:22;;;;;;;9.23;6.97;;;;;;;9.61;100.00;62991.81;5022002;28;20218;-78
2023/04/24 04:10:48;;;;;;;7.47;6.78;;;;;;;9.69;100.00;62997.03;5016341;28;20202;-78
2023/04/24 04:13:15;;;;;;;8.50;7.72;;;;;;;9.72;100.00;62998.09;5020821;28;20529;-77
2023/04/24 04:15:44;;;;;;;9.43;8.27;;;;;;;9.80;100.00;63008.91;5007308;28;20204;-79
2023/04/24 04:18:11;;;;;;;10.98;8.50;;;;;;;9.87;100.00;63013.63;5015873;28;20322;-78
2023/04/24 04:20:38;;;;;;;12.38;8.88;;;;;;;9.89;100.00;63020.25;5020588;28;20199;-78
2023/04/24 04:23:05;;;;;;;10.63;8.50;;;;;;;9.78;100.00;63004.31;5017436;28;20278;-77
2023/04/24 04:25:32;;;;;;;9.18;7.50;;;;;;;9.92;100.00;63025.91;5006464;28;20258;-78
2023/04/24 04:27:59;;;;;;;9.20;8.05;;;;;;;10.07;100.00;63031.78;5024616;28;20214;-78
2023/04/24 04:30:29;;;;;;;10.60;7.18;;;;;;;10.12;100.00;63044.59;5010047;28;20275;-78
2023/04/24 04:32:57;;;;;;;12.73;7.90;;;;;;;10.17;100.00;63049.75;5017755;28;20238;-78
2023/04/24 04:35:24;;;;;;;8.35;7.65;;;;;;;10.29;100.00;63059.63;5011719;28;20203;-77
2023/04/24 04:37:52;;;;;;;8.82;7.88;;;;;;;10.35;100.00;63068.38;5025604;28;20233;-78
2023/04/24 04:40:19;;;;;;;7.47;6.85;;;;;;;10.49;100.00;63077.28;5026349;28;20214;-78
2023/04/24 04:42:47;;;;;;;10.73;7.88;;;;;;;10.40;100.00;63070.50;5025554;28;20214;-79
2023/04/24 04:45:16;;;;;;;9.35;8.50;;;;;;;10.56;100.00;63091.63;5024436;28;20237;-79
2023/04/24 04:47:44;;;;;;;8.55;7.85;;;;;;;10.12;100.00;63044.06;5023624;28;20222;-76
2023/04/24 04:50:13;;;;;;;8.77;7.95;;;;;;;9.90;100.00;63016.19;5025219;28;20241;-79
2023/04/24 04:52:40;;;;;;;10.75;8.20;;;;;;;10.02;100.00;63036.25;5016766;28;20221;-78
2023/04/24 04:55:08;;;;;;;15.00;8.27;;;;;;;10.13;100.00;63045.13;5024990;28;20241;-78
2023/04/24 04:57:35;;;;;;;11.23;7.25;;;;;;;10.20;98.97;63047.78;5022468;28;20458;-78
2023/04/24 05:00:04;;;;;;;11.30;7.85;;;;;;;10.21;98.17;63053.91;5024447;28;20246;-78
2023/04/24 05:02:31;;;;;;;10.40;7.35;;;;;;;10.23;97.59;63050.38;5022241;28;20242;-77
2023/04/24 05:04:58;;;;;;;8.52;7.38;;;;;;;10.19;97.75;63048.78;5025102;28;20535;-78
2023/04/24 05:07:28;;;;;;;8.82;7.93;;;;;;;10.32;96.46;63057.66;5017623;28;20215;-78
2023/04/24 05:09:55;;;;;;;9.27;8.25;;;;;;;10.27;96.38;63055.00;5020472;28;20218;-79
2023/04/24 05:12:22;;;;;;;10.65;8.20;;;;;;;10.29;95.98;63062.19;5021324;28;20246;-79
2023/04/24 05:14:49;;;;;;;10.00;7.15;;;;;;;10.17;97.18;63049.25;5005162;28;20462;-78
2023/04/24 05:17:16;;;;;;;9.20;8.27;;;;;;;10.30;97.50;63062.69;5006592;28;20219;-77
2023/04/24 05:19:43;;;;;;;11.18;8.45;;;;;;;10.44;96.96;63075.16;5008794;28;20199;-77
2023/04/24 05:22:11;;;;;;;11.32;8.32;;;;;;;10.55;96.58;63086.03;5021388;28;20214;-78
2023/04/24 05:24:40;;;;;;;8.68;7.82;;;;;;;10.66;96.80;63094.88;5026071;28;20206;-78
2023/04/24 05:27:07;;;;;;;15.35;8.48;;;;;;;10.96;96.31;63125.91;5028765;28;20542;-79
2023/04/24 05:29:34;;;;;;;11.07;8.20;;;;;;;11.01;96.11;63131.09;5025748;28;20214;-78
2023/04/24 05:32:02;;;;;;;14.10;8.65;;;;;;;11.03;97.75;63138.25;5021587;28;20219;-79
2023/04/24 05:34:29;;;;;;;8.27;7.47;;;;;;;11.17;96.95;63147.66;5016048;28;20237;-80
2023/04/24 05:36:56;;;;;;;9.70;8.30;;;;;;;10.66;95.89;63096.88;5021490;28;20242;-78
2023/04/24 05:39:26;;;;;;;14.10;9.70;;;;;;;10.56;99.20;63087.03;5015780;28;20266;-81
2023/04/24 05:41:54;;;;;;;11.60;9.07;;;;;;;10.77;97.93;63105.75;5009991;28;20238;-78
2023/04/24 05:44:21;;;;;;;16.38;9.57;;;;;;;10.83;98.01;63114.47;5017815;28;20198;-77
2023/04/24 05:46:48;;;;;;;10.43;9.30;;;;;;;10.97;99.48;63132.06;5029314;28;20230;-78
2023/04/24 05:49:15;;;;;;;13.50;9.50;;;;;;;11.16;99.63;63149.19;5009163;28;20210;-77
2023/04/24 05:51:42;;;;;;;9.40;8.48;;;;;;;11.37;99.34;63170.41;5011729;28;20205;-77
2023/04/24 05:54:11;;;;;;;14.18;9.13;;;;;;;11.59;96.17;63198.28;5025623;28;20210;-80
2023/04/24 05:56:39;;;;;;;12.20;9.00;;;;;;;11.69;94.13;63205.59;5029263;28;20198;-79
2023/04/24 05:59:07;;;;;;;14.15;8.77;;;;;;;11.98;91.09;63228.00;5012016;28;20203;-79
2023/04/24 06:01:34;;;;;;;9.25;8.30;;;;;;;12.06;87.04;63244.47;5017400;28;20202;-76
2023/04/24 06:04:01;;;;;;;15.48;9.43;;;;;;;11.91;87.68;63225.84;5013447;28;20202;-79
2023/04/24 06:06:28;;;;;;;14.70;8.88;;;;;;;11.87;86.44;63221.72;5025216;28;20223;-77
2023/04/24 06:08:56;;;;;;;9.88;8.88;;;;;;;11.63;88.28;63194.78;5010188;28;20195;-78
2023/04/24 06:11:24;;;;;;;18.77;9.45;;;;;;;11.91;90.36;63226.38;5016061;28;20195;-78
2023/04/24 06:13:51;;;;;;;11.35;9.25;;;;;;;12.28;88.84;63261.66;5011479;28;20195;-77
2023/04/24 06:16:20;;;;;;;9.98;8.70;;;;;;;12.39;85.86;63273.06;5016609;28;20198;-75
2023/04/24 06:18:47;;;;;;;13.98;9.20;;;;;;;12.25;85.23;63259.03;5009576;28;20419;-75
2023/04/24 06:21:15;;;;;;;10.27;9.00;;;;;;;12.45;86.07;63282.34;5013162;28;20231;-78
2023/04/24 06:23:42;;;;;;;13.45;9.95;;;;;;;12.42;83.55;63278.72;5011120;28;20215;-78
2023/04/24 06:26:09;;;;;;;16.08;9.73;;;;;;;12.62;83.31;63299.44;5024113;28;20234;-76
2023/04/24 06:28:36;;;;;;;11.65;9.02;;;;;;;12.71;81.58;63308.78;5013763;28;20215;-78
2023/04/24 06:31:06;;;;;;;11.25;8.98;;;;;;;12.62;82.27;63294.84;5024837;28;20499;-76
2023/04/24 06:33:35;;;;;;;16.45;10.38;;;;;;;12.65;83.42;63305.09;5020392;28;20219;-76
2023/04/24 06:36:03;;;;;;;14.73;10.15;;;;;;;12.41;82.13;63283.28;5008279;28;20203;-75
2023/04/24 06:38:30;;;;;;;12.77;10.25;;;;;;;12.57;83.46;63301.91;5013338;28;20211;-78
2023/04/24 06:40:57;;;;;;;14.85;10.13;;;;;;;12.81;81.84;63319.16;5008581;28;20539;-76
2023/04/24 06:43:24;;;;;;;13.85;8.50;;;;;;;12.98;80.64;63333.72;5010786;28;20380;-75
2023/04/24 06:45:51;;;;;;;9.57;8.68;;;;;;;12.88;78.51;63321.28;5016909;28;20231;-75
2023/04/24 06:48:18;;;;;;;11.63;9.98;;;;;;;12.91;77.91;63326.97;5014786;28;20274;-76
2023/04/24 06:50:46;;;;;;;14.57;9.15;;;;;;;13.03;74.21;63346.59;5023247;28;20225;-76
2023/04/24 06:53:14;;;;;;;10.90;8.05;;;;;;;13.17;74.24;63356.50;5017278;28;20274;-77
2023/04/24 06:55:42;;;;;;;14.10;8.60;;;;;;;13.13;72.75;63349.78;5026859;28;20264;-76
2023/04/24 06:58:10;;;;;;;11.95;7.35;;;;;;;12.94;75.13;63332.63;5027150;28;20221;-76
2023/04/24 07:00:37;;;;;;;12.38;8.35;;;;;;;12.67;72.43;63307.19;5024534;28;20203;-75
2023/04/24 07:03:05;;;;;;;12.05;8.60;;;;;;;12.65;73.65;63300.50;5028023;28;20563;-76
2023/04/24 07:05:34;;;;;;;14.40;8.02;;;;;;;12.87;74.70;63322.81;5025652;28;20262;-75
2023/04/24 07:08:02;;;;;;;11.38;8.18;;;;;;;12.89;72.61;63327.44;5018010;28;20282;-77
2023/04/24 07:10:29;;;;;;;12.38;7.88;;;;;;;13.09;71.17;63347.69;5007988;28;20246;-75
2023/04/24 07:12:56;;;;;;;10.20;8.25;;;;;;;13.25;69.35;63364.28;5007666;28;20290;-77
2023/04/24 07:15:23;;;;;;;15.27;8.35;;;;;;;13.33;68.56;63372.59;5020787;28;20559;-76
2023/04/24 07:17:51;;;;;;;10.10;8.50;;;;;;;13.18;70.95;63362.13;5014339;28;20261;-76
2023/04/24 07:20:18;;;;;;;8.85;7.95;;;;;;;13.38;68.63;63378.28;5028814;28;20199;-74
2023/04/24 07:22:45;;;;;;;13.60;7.03;;;;;;;13.48;66.29;63388.16;5014013;28;20215;-78
2023/04/24 07:25:13;;;;;;;10.73;6.80;;;;;;;13.64;65.80;63407.31;5011084;28;20282;-76
2023/04/24 07:27:40;;;;;;;11.55;6.65;;;;;;;13.86;66.44;63427.59;5021629;28;20265;-79
2023/04/24 07:30:08;;;;;;;7.60;6.85;;;;;;;14.25;64.51;63473.22;5010058;28;20206;-77
2023/04/24 07:32:36;;;;;;;6.97;6.28;;;;;;;14.38;61.12;63483.63;5006746;28;20223;-75
2023/04/24 07:35:03;;;;;;;10.68;7.00;;;;;;;14.41;60.73;63482.16;5022862;28;20238;-74
2023/04/24 07:37:33;;;;;;;7.15;6.57;;;;;;;14.18;61.68;63460.81;5011743;28;20278;-77
2023/04/24 07:40:00;;;;;;;6.40;5.70;;;;;;;14.37;59.44;63480.03;5026369;28;20226;-76
2023/04/24 07:42:30;;;;;;;6.50;5.95;;;;;;;14.50;59.78;63494.06;5027183;28;20228;-75
2023/04/24 07:44:57;;;;;;;11.38;7.65;;;;;;;14.40;60.11;63480.59;5021513;28;20203;-77
2023/04/24 07:47:24;;;;;;;11.95;7.05;;;;;;;14.49;60.86;63493.03;5013576;28;20234;-75
2023/04/24 07:49:51;;;;;;;6.35;5.85;;;;;;;14.47;59.63;63487.84;5015864;28;20406;-76
2023/04/24 07:52:18;;;;;;;5.60;5.20;;;;;;;14.62;59.47;63506.00;5015045;28;20223;-76
2023/04/24 07:54:46;;;;;;;6.15;5.57;;;;;;;14.43;61.67;63491.91;5007988;28;20271;-78
2023/04/24 07:57:14;;;;;;;7.43;5.90;;;;;;;14.68;60.02;63514.81;5015288;28;20281;-78
2023/04/24 07:59:43;;;;;;;7.22;6.53;;;;;;;14.69;59.54;63513.28;5023654;28;20199;-76
2023/04/24 08:02:10;;;;;;;7.22;6.60;;;;;;;14.93;58.47;63538.72;5008536;28;20223;-76
2023/04/24 08:04:38;;;;;;;8.60;6.00;;;;;;;15.07;58.30;63552.75;5008547;28;20215;-77
2023/04/24 08:07:05;;;;;;;6.93;6.05;;;;;;;15.13;57.22;63561.03;5025244;28;20234;-77
2023/04/24 08:09:32;;;;;;;7.00;6.05;;;;;;;15.44;57.62;63588.13;5025556;28;20218;-76
2023/04/24 08:11:59;;;;;;;7.35;6.65;;;;;;;15.47;57.51;63588.69;5008694;28;20219;-75
2023/04/24 08:14:27;;;;;;;9.02;6.90;;;;;;;15.61;56.21;63608.38;5010088;28;20202;-78
2023/04/24 08:16:56;;;;;;;6.85;6.18;;;;;;;15.62;55.01;63609.41;5027685;28;20249;-76
2023/04/24 08:19:23;;;;;;;9.77;6.93;;;;;;;15.87;55.99;63637.97;5018658;28;20198;-77
2023/04/24 08:21:50;;;;;;;10.27;6.97;;;;;;;16.18;56.49;63667.66;5007323;28;20231;-76
2023/04/24 08:24:17;;;;;;;11.35;7.95;;;;;;;16.30;54.60;63682.69;5023986;28;20229;-76
2023/04/24 08:26:44;;;;;;;11.68;7.30;;;;;;;16.52;52.92;63702.50;5025609;28;20252;-76
2023/04/24 08:29:11;;;;;;;8.85;7.35;;;;;;;16.57;53.39;63708.22;5025883;28;20221;-77
2023/04/24 08:31:38;;;;;;;6.93;6.25;;;;;;;16.63;53.19;63713.94;5027496;28;20224;-77
2023/04/24 08:34:06;;;;;;;7.57;6.80;;;;;;;16.69;53.74;63723.28;5025125;28;20500;-76
2023/04/24 08:36:34;;;;;;;8.45;6.45;;;;;;;16.70;54.25;63718.66;5025716;28;20265;-77
2023/04/24 08:39:00;;;;;;;12.18;7.85;;;;;;;16.71;52.68;63722.78;5026107;28;20533;-76
2023/04/24 08:41:28;;;;;;;8.13;7.35;;;;;;;16.67;51.84;63723.78;5024933;28;20221;-76
2023/04/24 08:43:58;;;;;;;9.77;7.25;;;;;;;16.69;53.81;63720.19;5025581;28;20205;-77
2023/04/24 08:46:25;;;;;;;9.90;6.63;;;;;;;16.58;54.96;63713.91;5018215;28;20410;-74
2023/04/24 08:48:53;;;;;;;11.10;7.35;;;;;;;16.49;54.59;63697.34;5008542;28;20365;-76
2023/04/24 08:51:22;;;;;;;10.80;7.45;;;;;;;16.61;53.39;63712.41;5023764;28;20206;-76
2023/04/24 08:53:49;;;;;;;9.35;7.80;;;;;;;16.73;52.35;63721.78;5019893;28;20238;-74
2023/04/24 08:56:17;;;;;;;7.90;6.65;;;;;;;16.53;52.25;63706.63;5007424;28;20488;-74
2023/04/24 08:58:45;;;;;;;10.48;6.47;;;;;;;16.43;52.88;63691.06;5004941;28;20219;-76
2023/04/24 09:01:13;;;;;;;7.75;6.53;;;;;;;16.56;53.46;63707.19;5014579;28;20221;-76
2023/04/24 09:03:41;;;;;;;9.27;6.68;;;;;;;16.71;54.04;63719.69;5025889;28;20224;-76
2023/04/24 09:06:10;;;;;;;7.07;6.45;;;;;;;16.82;53.06;63736.28;5024298;28;20217;-75
2023/04/24 09:08:40;;;;;;;6.50;6.07;;;;;;;16.97;51.35;63749.31;5005314;28;20226;-75
2023/04/24 09:11:07;;;;;;;7.63;6.05;;;;;;;17.05;51.88;63755.59;5008783;28;20194;-77
2023/04/24 09:13:35;;;;;;;8.52;5.88;;;;;;;17.37;52.46;63793.00;5015701;28;20424;-77
2023/04/24 09:16:02;;;;;;;9.25;6.30;;;;;;;17.38;51.12;63794.56;5024204;28;20495;-76
2023/04/24 09:18:29;;;;;;;9.57;6.38;;;;;;;17.59;50.26;63816.47;5021298;28;20276;-76
2023/04/24 09:21:00;;;;;;;6.18;5.57;;;;;;;17.47;50.88;63803.97;5006744;28;20191;-75
2023/04/24 09:23:28;;;;;;;8.02;6.13;;;;;;;17.31;50.45;63782.66;5008528;28;20215;-75
2023/04/24 09:25:58;;;;;;;10.07;6.15;;;;;;;17.59;50.85;63818.50;5014228;28;20195;-78
2023/04/24 09:28:27;;;;;;;7.28;6.20;;;;;;;17.97;49.55;63858.63;5004607;28;20234;-77
2023/04/24 09:31:07;;;;;;;7.07;5.63;;;;;;;18.16;49.70;63873.25;5004171;28;20430;-77
2023/04/24 09:33:34;;;;;;;6.00;5.40;;;;;;;18.25;49.45;63884.69;5020972;28;20249;-76
2023/04/24 09:36:02;;;;;;;6.50;5.90;;;;;;;18.26;48.39;63881.09;5023160;28;20201;-74
2023/04/24 09:38:33;;;;;;;5.70;5.28;;;;;;;18.12;49.83;63871.66;5023466;28;20467;-75
2023/04/24 09:41:03;;;;;;;6.53;5.82;;;;;;;18.39;50.52;63899.81;5006493;28;20254;-77
2023/04/24 09:43:31;;;;;;;6.15;5.65;;;;;;;18.43;48.48;63901.41;5010475;28;20226;-77
2023/04/24 09:45:59;;;;;;;5.55;5.10;;;;;;;18.81;49.24;63939.97;5012146;28;20194;-77
2023/04/24 09:48:34;;;;;;;5.85;5.45;;;;;;;19.04;47.84;63963.94;5011619;28;20233;-76
2023/04/24 09:51:03;;;;;;;6.85;4.85;;;;;;;18.92;46.22;63954.00;5015375;28;20205;-77
2023/04/24 09:53:31;;;;;;;12.32;4.80;;;;;;;18.75;48.12;63936.81;5006283;28;20219;-76
2023/04/24 09:56:12;;;;;;;6.03;5.03;;;;;;;18.74;49.60;63940.94;5009285;28;20198;-76
2023/04/24 09:58:39;;;;;;;5.28;4.93;;;;;;;18.93;48.43;63958.16;5005399;28;20223;-76
2023/04/24 10:01:06;;;;;;;6.70;5.18;;;;;;;19.04;46.30;63963.94;5023203;28;20209;-76
2023/04/24 10:03:34;;;;;;;5.72;5.25;;;;;;;19.09;48.33;63969.16;5009059;28;20214;-77
2023/04/24 10:06:02;;;;;;;5.50;4.78;;;;;;;19.07;47.11;63970.16;5019949;28;20193;-75
2023/04/24 10:08:34;;;;;;;6.28;4.40;;;;;;;19.14;47.00;63976.94;5015362;28;20674;-76
2023/04/24 10:11:01;;;;;;;5.78;4.43;;;;;;;18.84;45.13;63943.09;5023548;28;20197;-75
2023/04/24 10:13:31;;;;;;;5.47;4.90;;;;;;;18.64;45.96;63924.84;5021490;28;20218;-75
2023/04/24 10:16:01;;;;;;;7.10;4.68;;;;;;;18.49;45.16;63907.13;5025553;28;20313;-75
2023/04/24 10:18:29;;;;;;;4.93;4.53;;;;;;;18.38;45.67;63896.19;5023336;28;20539;-76
2023/04/24 10:20:58;;;;;;;9.20;5.25;;;;;;;18.62;45.26;63922.75;5005862;28;20361;-73
2023/04/24 10:23:26;;;;;;;7.70;4.53;;;;;;;18.64;46.63;63924.84;5022487;28;20268;-76
2023/04/24 10:25:54;;;;;;;4.78;4.38;;;;;;;18.71;45.08;63932.13;5028499;28;20274;-76
2023/04/24 10:28:22;;;;;;;5.22;4.72;;;;;;;18.78;44.58;63934.78;5031415;28;20399;-75
2023/04/24 10:30:54;;;;;;;8.15;5.40;;;;;;;18.86;45.58;63942.59;5022762;28;20258;-75
2023/04/24 10:33:24;;;;;;;6.68;4.70;;;;;;;19.05;45.58;63968.06;5027888;28;20240;-79
2023/04/24 10:35:52;;;;;;;5.00;4.60;;;;;;;19.07;45.87;63964.50;5017041;28;20211;-75
2023/04/24 10:38:25;;;;;;;5.53;4.93;;;;;;;19.14;45.60;63979.53;5026335;28;20551;-76
2023/04/24 10:40:52;;;;;;;5.38;4.95;;;;;;;19.31;44.12;63994.69;5028013;28;20237;-76
2023/04/24 10:43:20;;;;;;;4.90;4.50;;;;;;;19.57;43.46;64021.81;5028286;28;20226;-75
2023/04/24 10:46:04;;;;;;;7.10;4.43;;;;;;;19.65;42.63;64027.56;5027922;28;20198;-76
2023/04/24 10:48:33;;;;;;;4.60;4.18;;;;;;;19.89;40.52;64052.06;5014744;28;20241;-75
2023/04/24 10:51:00;;;;;;;3.83;3.63;;;;;;;20.32;39.63;64091.78;5027011;28;20202;-76
2023/04/24 10:53:30;;;;;;;4.45;4.03;;;;;;;20.65;40.18;64136.59;5025645;28;20226;-76
2023/04/24 10:56:03;;;;;;;4.15;3.85;;;;;;;20.75;38.66;64139.25;5027760;28;20487;-76
2023/04/24 10:58:39;;;;;;;4.00;3.63;;;;;;;20.70;38.59;64134.03;5027528;28;20256;-74
2023/04/24 11:01:08;;;;;;;5.85;3.92;;;;;;;20.90;39.05;64159.56;5026787;28;20206;-76
2023/04/24 11:03:37;;;;;;;4.45;4.07;;;;;;;21.36;37.50;64207.63;5025583;28;20236;-77
2023/04/24 11:06:06;;;;;;;9.45;3.85;;;;;;;21.37;38.66;64204.00;5021941;28;20204;-76
2023/04/24 11:08:38;;;;;;;4.22;3.92;;;;;;;21.36;38.96;64205.56;5013159;28;20507;-76
2023/04/24 11:11:10;;;;;;;3.78;3.47;;;;;;;21.35;38.24;64204.50;5013404;28;20206;-75
2023/04/24 11:14:04;;;;;;;4.95;4.38;;;;;;;21.21;37.93;64189.88;5019433;28;20534;-77
2023/04/24 11:16:34;;;;;;;4.43;3.70;;;;;;;20.52;39.02;64118.34;5026488;28;20208;-78
2023/04/24 11:19:07;;;;;;;3.70;3.50;;;;;;;20.46;38.72;64116.75;5026266;28;20237;-77
2023/04/24 11:21:41;;;;;;;3.85;3.55;;;;;;;20.15;39.31;64084.91;5018906;28;20199;-75
2023/04/24 11:24:28;;;;;;;4.35;3.88;;;;;;;19.51;39.30;64012.97;5017044;28;20478;-75
2023/04/24 11:26:56;;;;;;;4.30;3.90;;;;;;;19.47;39.89;64009.31;5027953;28;20214;-76
2023/04/24 11:29:24;;;;;;;5.55;3.75;;;;;;;19.37;40.53;63998.91;5008360;28;20458;-77
2023/04/24 11:31:52;;;;;;;4.85;3.15;;;;;;;18.89;44.21;63951.41;5006753;28;20218;-77
2023/04/24 11:34:19;;;;;;;3.45;2.85;;;;;;;18.15;47.59;63864.47;5008652;28;20214;-76